Time;durP1;ratioP1;P1;durP2;ratioP2;P2;SDS_P1;SDS_P2;PMS_P1;PMS_P2;Temp;Humidity;BMP_temperature;BMP_pressure;BME280_temperature;BME280_humidity;BME280_pressure;Samples;Min_cycle;Max_cycle;Signal;HPM_P1;HPM_P2
2023/10/28 00:00:00;;;;;;;;;;;;;;;11.87;100.00;96393.44;5071125;28;19928;-81
2023/10/28 00:02:26;;;;;;;;;;;;;;;11.47;100.00;96400.59;5074982;28;19930;-81
2023/10/28 00:04:53;;;;;;;;;;;;;;;11.40;100.00;96394.88;5071426;28;19928;-81
2023/10/28 00:07:19;;;;;;;;;;;;;;;11.16;100.00;96405.06;5072763;28;19968;-80
2023/10/28 00:09:47;;;;;;;;;;;;;;;11.18;100.00;96408.22;5072909;28;20409;-80
2023/10/28 00:12:14;;;;;;;;;;;;;;;11.28;100.00;96413.34;5045885;28;19935;-81
2023/10/28 00:14:40;;;;;;;;;;;;;;;11.00;100.00;96422.53;5068275;28;19928;-81
2023/10/28 00:17:06;;;;;;;;;;;;;;;10.93;100.00;96422.16;5066116;28;19928;-80
2023/10/28 00:19:33;;;;;;;;;;;;;;;10.98;100.00;96424.72;5066269;28;20477;-82
2023/10/28 00:21:59;;;;;;;;;;;;;;;10.90;100.00;96417.41;5042503;28;19928;-81
2023/10/28 00:24:25;;;;;;;;;;;;;;;11.00;100.00;96415.31;5067598;28;19931;-81
2023/10/28 00:26:53;;;;;;;;;;;;;;;11.02;100.00;96421.13;5067312;28;19940;-81
2023/10/28 00:29:19;;;;;;;;;;;;;;;11.04;100.00;96432.34;5068590;28;19932;-81
2023/10/28 00:31:46;;;;;;;;;;;;;;;10.88;100.00;96424.94;5071941;28;19948;-80
2023/10/28 00:34:12;;;;;;;;;;;;;;;10.71;100.00;96436.25;5063760;28;19924;-81
2023/10/28 00:36:39;;;;;;;;;;;;;;;10.57;100.00;96430.94;5067557;28;19966;-81
2023/10/28 00:39:06;;;;;;;;;;;;;;;10.53;100.00;96429.16;5067760;28;19929;-80
2023/10/28 00:41:33;;;;;;;;;;;;;;;10.77;100.00;96438.50;5049718;28;19928;-79
2023/10/28 00:44:02;;;;;;;;;;;;;;;10.60;100.00;96433.00;5070287;28;19986;-80
2023/10/28 00:46:28;;;;;;;;;;;;;;;10.45;100.00;96438.66;5049071;28;20469;-81
2023/10/28 00:48:55;;;;;;;;;;;;;;;10.84;100.00;96436.22;5077438;28;20517;-81
2023/10/28 00:51:21;;;;;;;;;;;;;;;11.27;100.00;96459.84;5068910;28;19928;-80
2023/10/28 00:53:49;;;;;;;;;;;;;;;11.75;100.00;96466.22;5070754;28;20319;-79
2023/10/28 00:56:18;;;;;;;;;;;;;;;11.91;100.00;96467.41;5065814;28;19986;-80
2023/10/28 00:58:46;;;;;;;;;;;;;;;12.00;100.00;96459.44;5065446;28;20407;-79
2023/10/28 01:01:14;;;;;;;;;;;;;;;11.93;100.00;96466.31;5058801;28;19935;-81
2023/10/28 01:03:41;;;;;;;;;;;;;;;11.92;100.00;96473.56;5066891;28;19928;-80
2023/10/28 01:06:09;;;;;;;;;;;;;;;11.99;100.00;96465.88;5066304;28;19931;-81
2023/10/28 01:08:35;;;;;;;;;;;;;;;11.94;100.00;96462.56;5065482;28;20631;-79
2023/10/28 01:11:02;;;;;;;;;;;;;;;12.03;100.00;96463.41;5064749;28;19924;-80
2023/10/28 01:13:28;;;;;;;;;;;;;;;12.01;100.00;96466.38;5063831;28;20327;-81
2023/10/28 01:15:55;;;;;;;;;;;;;;;12.01;100.00;96468.28;5080682;28;20310;-81
2023/10/28 01:18:23;;;;;;;;;;;;;;;12.03;100.00;96461.50;5065390;28;19935;-81
2023/10/28 01:20:49;;;;;;;;;;;;;;;12.05;100.00;96461.97;5061786;28;20019;-80
2023/10/28 01:23:18;;;;;;;;;;;;;;;12.06;100.00;96465.47;5064263;28;19924;-80
2023/10/28 01:25:44;;;;;;;;;;;;;;;12.03;100.00;96455.38;5043688;28;19936;-79
2023/10/28 01:28:11;;;;;;;;;;;;;;;12.12;100.00;96459.66;5063406;28;20027;-80
2023/10/28 01:30:38;;;;;;;;;;;;;;;12.10;100.00;96464.53;5064903;28;19962;-80
2023/10/28 01:33:04;;;;;;;;;;;;;;;12.09;100.00;96459.50;5062341;28;19928;-80
2023/10/28 01:35:32;;;;;;;;;;;;;;;12.11;100.00;96466.09;5064919;28;19938;-80
2023/10/28 01:37:58;;;;;;;;;;;;;;;12.16;100.00;96454.50;5061580;28;19932;-80
2023/10/28 01:40:26;;;;;;;;;;;;;;;12.08;100.00;96457.91;5063920;28;19964;-81
2023/10/28 01:42:52;;;;;;;;;;;;;;;12.04;100.00;96463.06;5060431;28;19936;-81
2023/10/28 01:45:21;;;;;;;;;;;;;;;12.05;100.00;96458.50;5062990;28;20026;-80
2023/10/28 01:47:47;;;;;;;;;;;;;;;12.06;100.00;96449.41;5065322;28;20310;-80
2023/10/28 01:50:14;;;;;;;;;;;;;;;12.05;100.00;96447.81;5062321;28;19924;-80
2023/10/28 01:52:40;;;;;;;;;;;;;;;12.05;100.00;96448.59;5065911;28;19932;-79
2023/10/28 01:55:07;;;;;;;;;;;;;;;12.07;100.00;96453.66;5053352;28;19924;-79
2023/10/28 01:57:35;;;;;;;;;;;;;;;12.11;100.00;96451.94;5066174;28;19931;-80
2023/10/28 02:00:04;;;;;;;;;;;;;;;12.13;100.00;96447.84;5061407;28;19928;-80
2023/10/28 02:02:31;;;;;;;;;;;;;;;12.11;100.00;96462.63;5067425;28;20564;-80
2023/10/28 02:04:57;;;;;;;;;;;;;;;12.17;100.00;96464.09;5065653;28;20019;-81
2023/10/28 02:07:24;;;;;;;;;;;;;;;12.11;100.00;96470.66;5065808;28;20406;-80
2023/10/28 02:09:52;;;;;;;;;;;;;;;12.06;100.00;96468.94;5064283;28;19929;-80
2023/10/28 02:12:18;;;;;;;;;;;;;;;12.10;100.00;96469.09;5061835;28;19939;-80
2023/10/28 02:14:46;;;;;;;;;;;;;;;12.14;100.00;96468.16;5065842;28;20019;-81
2023/10/28 02:17:12;;;;;;;;;;;;;;;12.15;100.00;96463.59;5062060;28;19982;-81
2023/10/28 02:19:39;;;;;;;;;;;;;;;12.14;100.00;96473.53;5069999;28;20023;-81
2023/10/28 02:22:06;;;;;;;;;;;;;;;12.10;100.00;96471.78;5067737;28;19928;-81
2023/10/28 02:24:32;;;;;;;;;;;;;;;12.11;100.00;96473.34;5069436;28;20640;-80
2023/10/28 02:26:58;;;;;;;;;;;;;;;12.14;100.00;96478.06;5068657;28;19924;-80
2023/10/28 02:29:25;;;;;;;;;;;;;;;12.10;100.00;96471.78;5049876;28;20600;-81
2023/10/28 02:31:52;;;;;;;;;;;;;;;12.11;100.00;96478.69;5069524;28;19929;-81
2023/10/28 02:34:19;;;;;;;;;;;;;;;12.12;100.00;96478.41;5065117;28;19959;-80
2023/10/28 02:36:46;;;;;;;;;;;;;;;12.14;100.00;96467.38;5070121;28;19928;-81
2023/10/28 02:39:13;;;;;;;;;;;;;;;12.15;100.00;96474.31;5064393;28;19936;-81
2023/10/28 02:41:39;;;;;;;;;;;;;;;12.14;100.00;96478.88;5074573;28;20003;-80
2023/10/28 02:44:06;;;;;;;;;;;;;;;12.14;100.00;96478.06;5067970;28;19931;-80
2023/10/28 02:46:32;;;;;;;;;;;;;;;12.14;100.00;96473.53;5068824;28;19931;-81
2023/10/28 02:49:00;;;;;;;;;;;;;;;12.11;100.00;96482.16;5069647;28;19931;-80
2023/10/28 02:51:26;;;;;;;;;;;;;;;12.07;100.00;96477.75;5068790;28;19992;-80
2023/10/28 02:53:53;;;;;;;;;;;;;;;12.12;100.00;96474.94;5061357;28;19986;-81
2023/10/28 02:56:19;;;;;;;;;;;;;;;12.05;100.00;96477.25;5069426;28;19925;-80
2023/10/28 02:58:45;;;;;;;;;;;;;;;12.05;100.00;96482.59;5059936;28;19930;-80
2023/10/28 03:01:13;;;;;;;;;;;;;;;12.09;100.00;96486.25;5069553;28;19931;-80
2023/10/28 03:03:41;;;;;;;;;;;;;;;11.97;100.00;96488.69;5068872;28;19994;-83
2023/10/28 03:06:08;;;;;;;;;;;;;;;12.04;100.00;96489.81;5069623;28;20426;-81
2023/10/28 03:08:35;;;;;;;;;;;;;;;12.04;100.00;96494.41;5051005;28;19936;-80
2023/10/28 03:11:01;;;;;;;;;;;;;;;12.03;100.00;96492.81;5067469;28;20519;-80
2023/10/28 03:13:27;;;;;;;;;;;;;;;12.05;100.00;96495.97;5045790;28;19959;-80
2023/10/28 03:15:54;;;;;;;;;;;;;;;12.06;100.00;96492.22;5067801;28;19931;-80
2023/10/28 03:18:20;;;;;;;;;;;;;;;12.03;100.00;96493.63;5068730;28;19926;-81
2023/10/28 03:20:46;;;;;;;;;;;;;;;11.97;100.00;96499.41;5068689;28;20422;-80
2023/10/28 03:23:14;;;;;;;;;;;;;;;11.92;100.00;96497.63;5066307;28;19924;-81
2023/10/28 03:25:41;;;;;;;;;;;;;;;11.88;100.00;96497.44;5068645;28;19959;-81
2023/10/28 03:28:08;;;;;;;;;;;;;;;11.73;100.00;96503.16;5068518;28;20563;-81
2023/10/28 03:30:35;;;;;;;;;;;;;;;11.83;100.00;96505.59;5067420;28;19924;-80
2023/10/28 03:33:01;;;;;;;;;;;;;;;11.79;100.00;96493.94;5064468;28;19929;-80
2023/10/28 03:35:27;;;;;;;;;;;;;;;11.85;100.00;96503.41;5067756;28;20496;-79
2023/10/28 03:37:55;;;;;;;;;;;;;;;11.87;100.00;96497.75;5064271;28;19967;-81
2023/10/28 03:40:23;;;;;;;;;;;;;;;11.86;100.00;96496.16;5072009;28;19929;-80
2023/10/28 03:42:49;;;;;;;;;;;;;;;11.80;100.00;96508.09;5063132;28;20257;-80
2023/10/28 03:45:16;;;;;;;;;;;;;;;11.85;100.00;96502.63;5057885;28;19982;-81
2023/10/28 03:47:42;;;;;;;;;;;;;;;11.80;100.00;96494.72;5068311;28;19965;-80
2023/10/28 03:50:09;;;;;;;;;;;;;;;11.78;100.00;96495.03;5064826;28;19963;-80
2023/10/28 03:52:36;;;;;;;;;;;;;;;11.75;100.00;96495.66;5068469;28;20590;-81
2023/10/28 03:55:03;;;;;;;;;;;;;;;11.84;100.00;96495.69;5063769;28;19963;-81
2023/10/28 03:57:30;;;;;;;;;;;;;;;11.83;100.00;96510.16;5066416;28;19928;-81
2023/10/28 03:59:58;;;;;;;;;;;;;;;11.79;100.00;96504.63;5062689;28;19925;-80
2023/10/28 04:02:25;;;;;;;;;;;;;;;11.69;100.00;96517.44;5065442;28;20460;-80
2023/10/28 04:04:51;;;;;;;;;;;;;;;11.65;100.00;96514.56;5075529;28;19928;-81
2023/10/28 04:07:18;;;;;;;;;;;;;;;11.67;100.00;96523.06;5067971;28;20118;-81
2023/10/28 04:09:44;;;;;;;;;;;;;;;11.69;100.00;96523.56;5068031;28;20607;-81
2023/10/28 04:12:11;;;;;;;;;;;;;;;11.73;100.00;96521.09;5063502;28;20003;-80
2023/10/28 04:14:38;;;;;;;;;;;;;;;11.75;100.00;96514.38;5076708;28;20015;-80
2023/10/28 04:17:05;;;;;;;;;;;;;;;11.75;100.00;96519.72;5050253;28;19924;-80
2023/10/28 04:19:31;;;;;;;;;;;;;;;11.71;100.00;96524.09;5067959;28;20300;-81
2023/10/28 04:21:57;;;;;;;;;;;;;;;11.74;100.00;96520.81;5067195;28;19925;-80
2023/10/28 04:24:24;;;;;;;;;;;;;;;11.70;100.00;96525.16;5067136;28;19928;-81
2023/10/28 04:26:50;;;;;;;;;;;;;;;11.53;100.00;96532.22;5064213;28;20419;-80
2023/10/28 04:29:16;;;;;;;;;;;;;;;11.56;100.00;96536.97;5067876;28;19924;-80
2023/10/28 04:31:44;;;;;;;;;;;;;;;11.53;100.00;96532.22;5072098;28;20402;-81
2023/10/28 04:34:10;;;;;;;;;;;;;;;11.46;100.00;96527.31;5066436;28;19929;-82
2023/10/28 04:36:37;;;;;;;;;;;;;;;11.50;100.00;96538.19;5067826;28;19932;-81
2023/10/28 04:39:03;;;;;;;;;;;;;;;11.39;100.00;96543.75;5067882;28;19924;-82
2023/10/28 04:41:30;;;;;;;;;;;;;;;11.53;100.00;96542.94;5067095;28;19935;-80
2023/10/28 04:43:56;;;;;;;;;;;;;;;11.51;100.00;96547.78;5067152;28;20003;-81
2023/10/28 04:46:22;;;;;;;;;;;;;;;11.53;100.00;96556.28;5065685;28;19925;-81
2023/10/28 04:48:50;;;;;;;;;;;;;;;11.45;100.00;96552.44;5067354;28;19935;-81
2023/10/28 04:51:16;;;;;;;;;;;;;;;11.53;100.00;96559.78;5060960;28;19951;-80
2023/10/28 04:53:43;;;;;;;;;;;;;;;11.55;100.00;96546.88;5065619;28;19982;-80
2023/10/28 04:56:10;;;;;;;;;;;;;;;11.38;100.00;96552.09;5059324;28;20016;-80
2023/10/28 04:58:36;;;;;;;;;;;;;;;11.50;100.00;96560.38;5047507;28;19925;-81
2023/10/28 05:01:03;;;;;;;;;;;;;;;11.49;100.00;96552.63;5058447;28;20762;-80
2023/10/28 05:03:29;;;;;;;;;;;;;;;11.42;100.00;96547.69;5072553;28;19928;-81
2023/10/28 05:05:57;;;;;;;;;;;;;;;11.46;100.00;96559.38;5067977;28;20004;-80
2023/10/28 05:08:23;;;;;;;;;;;;;;;11.55;100.00;96562.13;5046147;28;19929;-82
2023/10/28 05:10:50;;;;;;;;;;;;;;;11.58;100.00;96562.31;5065119;28;19929;-80
2023/10/28 05:13:16;;;;;;;;;;;;;;;11.50;100.00;96564.91;5059060;28;20328;-81
2023/10/28 05:15:42;;;;;;;;;;;;;;;11.51;100.00;96564.63;5064153;28;19931;-81
2023/10/28 05:18:09;;;;;;;;;;;;;;;11.46;100.00;96561.25;5066667;28;19925;-81
2023/10/28 05:20:35;;;;;;;;;;;;;;;11.58;100.00;96569.53;5063297;28;19935;-81
2023/10/28 05:23:03;;;;;;;;;;;;;;;11.51;100.00;96569.19;5073892;28;19974;-81
2023/10/28 05:25:29;;;;;;;;;;;;;;;11.58;100.00;96582.91;5067297;28;19928;-82
2023/10/28 05:27:55;;;;;;;;;;;;;;;11.53;100.00;96583.81;5067137;28;19955;-81
2023/10/28 05:30:23;;;;;;;;;;;;;;;11.54;100.00;96587.31;5066537;28;20402;-81
2023/10/28 05:32:50;;;;;;;;;;;;;;;11.64;100.00;96587.06;5080880;28;20015;-81
2023/10/28 05:35:16;;;;;;;;;;;;;;;11.62;100.00;96583.91;5057717;28;20498;-81
2023/10/28 05:37:43;;;;;;;;;;;;;;;11.61;100.00;96593.78;5066495;28;19939;-82
2023/10/28 05:40:13;;;;;;;;;;;;;;;11.58;100.00;96594.41;5066772;28;19924;-81
2023/10/28 05:42:39;;;;;;;;;;;;;;;11.59;100.00;96601.34;5061504;28;19960;-80
2023/10/28 05:45:07;;;;;;;;;;;;;;;11.65;100.00;96600.13;5066865;28;19933;-80
2023/10/28 05:47:34;;;;;;;;;;;;;;;11.66;100.00;96607.06;5048658;28;19928;-81
2023/10/28 05:50:04;;;;;;;;;;;;;;;11.64;100.00;96606.56;5054602;28;19928;-81
2023/10/28 05:52:31;;;;;;;;;;;;;;;11.61;100.00;96615.19;5078067;28;19959;-81
2023/10/28 05:54:58;;;;;;;;;;;;;;;11.61;100.00;96612.50;5061381;28;19929;-80
2023/10/28 05:57:26;;;;;;;;;;;;;;;11.67;100.00;96624.69;5069602;28;20402;-82
2023/10/28 05:59:52;;;;;;;;;;;;;;;11.67;100.00;96613.97;5069520;28;19934;-81
2023/10/28 06:02:18;;;;;;;;;;;;;;;11.69;100.00;96617.16;5070386;28;19924;-81
2023/10/28 06:04:45;;;;;;;;;;;;;;;11.74;100.00;96619.75;5066148;28;19936;-81
2023/10/28 06:07:11;;;;;;;;;;;;;;;11.72;100.00;96613.13;5048191;28;19928;-81
2023/10/28 06:09:38;;;;;;;;;;;;;;;11.70;100.00;96624.09;5073810;28;20327;-81
2023/10/28 06:12:04;;;;;;;;;;;;;;;11.66;100.00;96633.81;5066266;28;20455;-81
2023/10/28 06:14:32;;;;;;;;;;;;;;;11.62;100.00;96632.81;5065404;28;19931;-80
2023/10/28 06:16:58;;;;;;;;;;;;;;;11.64;100.00;96627.97;5059901;28;19929;-81
2023/10/28 06:19:25;;;;;;;;;;;;;;;11.68;100.00;96631.63;5066386;28;19950;-81
2023/10/28 06:21:51;;;;;;;;;;;;;;;11.64;100.00;96633.31;5066712;28;19972;-81
2023/10/28 06:24:18;;;;;;;;;;;;;;;11.67;100.00;96640.72;5066455;28;19936;-81
2023/10/28 06:26:45;;;;;;;;;;;;;;;11.70;100.00;96637.47;5069198;28;19928;-81
2023/10/28 06:29:12;;;;;;;;;;;;;;;11.71;100.00;96641.75;5065983;28;19933;-80
2023/10/28 06:31:40;;;;;;;;;;;;;;;11.78;100.00;96639.47;5066496;28;20019;-80
2023/10/28 06:34:06;;;;;;;;;;;;;;;11.76;100.00;96633.59;5065737;28;19928;-80
2023/10/28 06:36:33;;;;;;;;;;;;;;;11.80;100.00;96639.16;5065809;28;20011;-81
2023/10/28 06:39:00;;;;;;;;;;;;;;;11.76;100.00;96640.84;5066001;28;19928;-81
2023/10/28 06:41:26;;;;;;;;;;;;;;;11.81;100.00;96646.88;5065854;28;19933;-82
2023/10/28 06:43:53;;;;;;;;;;;;;;;11.80;100.00;96639.16;5060964;28;19935;-81
2023/10/28 06:46:20;;;;;;;;;;;;;;;11.80;100.00;96639.94;5065804;28;20019;-80
2023/10/28 06:48:47;;;;;;;;;;;;;;;11.76;100.00;96638.94;5066043;28;19971;-81
2023/10/28 06:51:14;;;;;;;;;;;;;;;11.75;100.00;96631.25;5044498;28;19924;-82
2023/10/28 06:53:40;;;;;;;;;;;;;;;11.80;100.00;96641.81;5066248;28;19924;-81
2023/10/28 06:56:07;;;;;;;;;;;;;;;11.82;100.00;96651.13;5063694;28;19935;-80
2023/10/28 06:58:34;;;;;;;;;;;;;;;11.85;100.00;96642.50;5065896;28;19974;-81
2023/10/28 07:01:00;;;;;;;;;;;;;;;11.89;100.00;96642.69;5067855;28;20324;-80
2023/10/28 07:03:27;;;;;;;;;;;;;;;11.91;100.00;96648.53;5046180;28;19928;-81
2023/10/28 07:05:55;;;;;;;;;;;;;;;11.89;100.00;96659.53;5069445;28;19933;-81
2023/10/28 07:08:21;;;;;;;;;;;;;;;11.95;100.00;96662.09;5068341;28;19930;-81
2023/10/28 07:10:49;;;;;;;;;;;;;;;11.96;100.00;96672.50;5051381;28;20401;-81
2023/10/28 07:13:15;;;;;;;;;;;;;;;11.98;100.00;96661.47;5067185;28;20008;-81
2023/10/28 07:15:41;;;;;;;;;;;;;;;11.88;100.00;96674.00;5071939;28;20018;-81
2023/10/28 07:18:08;;;;;;;;;;;;;;;11.88;100.00;96678.56;5068422;28;19924;-80
2023/10/28 07:20:35;;;;;;;;;;;;;;;11.81;100.00;96676.31;5064971;28;20313;-82
2023/10/28 07:23:03;;;;;;;;;;;;;;;11.86;100.00;96686.88;5067504;28;19967;-81
2023/10/28 07:25:29;;;;;;;;;;;;;;;11.86;100.00;96681.53;5063240;28;19940;-81
2023/10/28 07:27:56;;;;;;;;;;;;;;;11.85;100.00;96685.28;5069328;28;19929;-81
2023/10/28 07:30:22;;;;;;;;;;;;;;;11.83;100.00;96682.13;5069100;28;20023;-82
2023/10/28 07:32:49;;;;;;;;;;;;;;;11.76;100.00;96684.41;5065357;28;19928;-82
2023/10/28 07:35:16;;;;;;;;;;;;;;;11.74;100.00;96694.63;5060965;28;19985;-82
2023/10/28 07:37:43;;;;;;;;;;;;;;;11.65;100.00;96696.41;5064403;28;20439;-81
2023/10/28 07:40:12;;;;;;;;;;;;;;;11.56;100.00;96697.41;5069016;28;20399;-80
2023/10/28 07:42:38;;;;;;;;;;;;;;;11.36;100.00;96703.91;5076643;28;20360;-80
2023/10/28 07:45:05;;;;;;;;;;;;;;;11.42;100.00;96701.97;5066475;28;19931;-81
2023/10/28 07:47:32;;;;;;;;;;;;;;;11.34;100.00;96712.25;5068520;28;19995;-81
2023/10/28 07:49:58;;;;;;;;;;;;;;;11.35;100.00;96719.19;5082657;28;19947;-80
2023/10/28 07:52:26;;;;;;;;;;;;;;;11.21;100.00;96717.56;5078118;28;19924;-82
2023/10/28 07:54:52;;;;;;;;;;;;;;;11.03;100.00;96729.13;5063718;28;19928;-82
2023/10/28 07:57:20;;;;;;;;;;;;;;;11.13;100.00;96731.63;5066865;28;20665;-80
2023/10/28 07:59:46;;;;;;;;;;;;;;;11.02;100.00;96727.53;5063454;28;20027;-82
2023/10/28 08:02:12;;;;;;;;;;;;;;;10.91;100.00;96731.47;5050305;28;19928;-81
2023/10/28 08:04:39;;;;;;;;;;;;;;;10.86;100.00;96720.91;5068537;28;19929;-80
2023/10/28 08:07:05;;;;;;;;;;;;;;;10.92;100.00;96730.41;5066084;28;19940;-82
2023/10/28 08:09:31;;;;;;;;;;;;;;;11.26;100.00;96725.53;5075577;28;19931;-82
2023/10/28 08:11:58;;;;;;;;;;;;;;;12.12;100.00;96731.81;5045256;28;20360;-80
2023/10/28 08:14:26;;;;;;;;;;;;;;;12.03;100.00;96736.31;5073680;28;20060;-80
2023/10/28 08:16:52;;;;;;;;;;;;;;;12.18;100.00;96736.75;5051165;28;20371;-81
2023/10/28 08:19:19;;;;;;;;;;;;;;;12.50;100.00;96740.34;5067323;28;20677;-81
2023/10/28 08:21:45;;;;;;;;;;;;;;;12.58;100.00;96740.41;5068551;28;19974;-80
2023/10/28 08:24:15;;;;;;;;;;;;;;;12.83;100.00;96731.75;5058838;28;19924;-80
2023/10/28 08:26:42;;;;;;;;;;;;;;;11.99;100.00;96737.97;5068095;28;19936;-82
2023/10/28 08:29:11;;;;;;;;;;;;;;;12.27;100.00;96743.00;5067629;28;20481;-81
2023/10/28 08:31:39;;;;;;;;;;;;;;;12.24;100.00;96745.47;5067728;28;19938;-81
2023/10/28 08:34:06;;;;;;;;;;;;;;;12.47;100.00;96751.66;5068058;28;20546;-82
2023/10/28 08:36:34;;;;;;;;;;;;;;;12.48;100.00;96748.66;5049700;28;19967;-81
2023/10/28 08:39:01;;;;;;;;;;;;;;;12.82;100.00;96761.53;5067633;28;19935;-80
2023/10/28 08:41:27;;;;;;;;;;;;;;;13.08;100.00;96756.34;5068057;28;19933;-81
2023/10/28 08:43:54;;;;;;;;;;;;;;;12.86;100.00;96770.53;5066726;28;20287;-81
2023/10/28 08:46:21;;;;;;;;;;;;;;;12.80;100.00;96775.22;5067959;28;19929;-80
2023/10/28 08:48:49;;;;;;;;;;;;;;;13.15;100.00;96764.78;5067685;28;20038;-81
2023/10/28 08:51:16;;;;;;;;;;;;;;;13.49;100.00;96773.00;5050033;28;19929;-81
2023/10/28 08:53:44;;;;;;;;;;;;;;;12.71;100.00;96782.41;5067975;28;19960;-81
2023/10/28 08:56:12;;;;;;;;;;;;;;;12.76;100.00;96779.59;5063456;28;20045;-81
2023/10/28 08:58:39;;;;;;;;;;;;;;;13.03;100.00;96767.19;5041998;28;20016;-82
2023/10/28 09:01:05;;;;;;;;;;;;;;;12.47;100.00;96787.25;5062543;28;19925;-81
2023/10/28 09:03:33;;;;;;;;;;;;;;;12.48;100.00;96788.03;5061749;28;19928;-82
2023/10/28 09:06:02;;;;;;;;;;;;;;;12.91;100.00;96791.84;5062579;28;20410;-80
2023/10/28 09:08:29;;;;;;;;;;;;;;;13.12;100.00;96808.28;5060821;28;19925;-83
2023/10/28 09:10:56;;;;;;;;;;;;;;;12.74;100.00;96813.97;5066005;28;20327;-83
2023/10/28 09:13:23;;;;;;;;;;;;;;;12.46;100.00;96796.38;5051158;28;19940;-82
2023/10/28 09:15:51;;;;;;;;;;;;;;;12.60;100.00;96789.09;5075086;28;19924;-83
2023/10/28 09:18:17;;;;;;;;;;;;;;;12.42;100.00;96784.69;5060443;28;20019;-83
2023/10/28 09:20:44;;;;;;;;;;;;;;;12.35;100.00;96781.63;5069405;28;19929;-82
2023/10/28 09:23:13;;;;;;;;;;;;;;;12.40;100.00;96781.53;5069455;28;20383;-82
2023/10/28 09:25:40;;;;;;;;;;;;;;;12.38;100.00;96789.03;5079828;28;20386;-82
2023/10/28 09:28:15;;;;;;;;;;;;;;;12.56;100.00;96788.13;5063276;28;19994;-83
2023/10/28 09:30:45;;;;;;;;;;;;;;;12.69;100.00;96778.47;5081942;28;19930;-83
2023/10/28 09:33:12;;;;;;;;;;;;;;;12.66;100.00;96769.13;5045050;28;19978;-83
2023/10/28 09:35:39;;;;;;;;;;;;;;;12.80;100.00;96769.09;5064705;28;19933;-82
2023/10/28 09:38:08;;;;;;;;;;;;;;;12.87;100.00;96769.47;5060919;28;20015;-82
2023/10/28 09:40:35;;;;;;;;;;;;;;;12.74;100.00;96764.94;5045319;28;19931;-83
2023/10/28 09:43:03;;;;;;;;;;;;;;;12.85;100.00;96767.06;5072054;28;19931;-82
2023/10/28 09:45:29;;;;;;;;;;;;;;;12.83;100.00;96785.34;5078060;28;20061;-83
2023/10/28 09:47:57;;;;;;;;;;;;;;;12.40;100.00;96778.84;5081620;28;20438;-82
2023/10/28 09:50:25;;;;;;;;;;;;;;;12.47;100.00;96781.13;5068965;28;20410;-83
2023/10/28 09:52:53;;;;;;;;;;;;;;;12.52;100.00;96781.78;5050741;28;20383;-82
2023/10/28 09:55:21;;;;;;;;;;;;;;;12.74;100.00;96783.69;5066875;28;19968;-82
2023/10/28 09:57:51;;;;;;;;;;;;;;;12.84;100.00;96784.22;5052352;28;19935;-82
2023/10/28 10:00:19;;;;;;;;;;;;;;;12.96;100.00;96781.81;5067117;28;19928;-81
2023/10/28 10:02:54;;;;;;;;;;;;;;;13.06;100.00;96766.59;5068290;28;20155;-81
2023/10/28 10:05:23;;;;;;;;;;;;;;;12.88;100.00;96763.78;5064553;28;20392;-80
2023/10/28 10:07:50;;;;;;;;;;;;;;;12.99;100.00;96758.97;5062996;28;20507;-82
2023/10/28 10:10:16;;;;;;;;;;;;;;;13.02;100.00;96757.56;5056421;28;20384;-82
2023/10/28 10:12:43;;;;;;;;;;;;;;;13.01;100.00;96756.75;5065935;28;20376;-82
2023/10/28 10:15:13;;;;;;;;;;;;;;;12.88;100.00;96754.94;5067229;28;20380;-81
2023/10/28 10:17:44;;;;;;;;;;;;;;;13.02;100.00;96755.69;5054059;28;20026;-81
2023/10/28 10:20:10;;;;;;;;;;;;;;;13.13;100.00;96751.66;5060115;28;19936;-82
2023/10/28 10:22:39;;;;;;;;;;;;;;;13.12;100.00;96754.66;5067972;28;19947;-83
2023/10/28 10:25:05;;;;;;;;;;;;;;;13.21;100.00;96752.81;5064107;28;19925;-82
2023/10/28 10:27:35;;;;;;;;;;;;;;;13.30;100.00;96740.25;5055003;28;19950;-82
2023/10/28 10:30:06;;;;;;;;;;;;;;;13.33;100.00;96755.72;5064167;28;20019;-83
2023/10/28 10:32:41;;;;;;;;;;;;;;;13.46;100.00;96749.47;5057049;28;19928;-83
2023/10/28 10:35:12;;;;;;;;;;;;;;;13.31;100.00;96750.66;5056732;28;19924;-81
2023/10/28 10:37:38;;;;;;;;;;;;;;;13.57;100.00;96761.50;5060692;28;19931;-80
2023/10/28 10:40:08;;;;;;;;;;;;;;;13.68;100.00;96752.06;5051158;28;19931;-82
2023/10/28 10:42:36;;;;;;;;;;;;;;;13.76;100.00;96758.56;5061559;28;20360;-82
2023/10/28 10:45:03;;;;;;;;;;;;;;;14.01;100.00;96745.25;5069125;28;20008;-82
2023/10/28 10:47:30;;;;;;;;;;;;;;;14.20;100.00;96746.84;5068313;28;19932;-80
2023/10/28 10:49:58;;;;;;;;;;;;;;;14.44;100.00;96753.38;5071968;28;19930;-80
2023/10/28 10:52:26;;;;;;;;;;;;;;;14.52;100.00;96749.88;5064453;28;19964;-79
2023/10/28 10:54:53;;;;;;;;;;;;;;;14.51;100.00;96742.16;5042427;28;19955;-80
2023/10/28 10:57:19;;;;;;;;;;;;;;;14.50;100.00;96736.00;5061985;28;20410;-85
2023/10/28 10:59:46;;;;;;;;;;;;;;;14.74;100.00;96745.44;5069093;28;19925;-79
2023/10/28 11:02:13;;;;;;;;;;;;;;;14.66;100.00;96732.81;5047771;28;19932;-80
2023/10/28 11:04:40;;;;;;;;;;;;;;;14.82;100.00;96742.78;5066318;28;19936;-81
2023/10/28 11:07:08;;;;;;;;;;;;;;;15.13;100.00;96737.19;5063840;28;20572;-78
2023/10/28 11:09:34;;;;;;;;;;;;;;;15.35;100.00;96731.56;5065870;28;19935;-79
2023/10/28 11:12:01;;;;;;;;;;;;;;;15.34;100.00;96734.59;5062852;28;20371;-80
2023/10/28 11:14:27;;;;;;;;;;;;;;;15.53;100.00;96733.13;5062755;28;19932;-79
2023/10/28 11:16:54;;;;;;;;;;;;;;;15.57;100.00;96734.03;5060266;28;20745;-79
2023/10/28 11:19:21;;;;;;;;;;;;;;;15.45;100.00;96731.22;5060954;28;19928;-78
2023/10/28 11:21:47;;;;;;;;;;;;;;;15.39;100.00;96732.50;5063077;28;19999;-78
2023/10/28 11:24:16;;;;;;;;;;;;;;;15.72;100.00;96727.31;5064557;28;19931;-84
2023/10/28 11:26:45;;;;;;;;;;;;;;;15.54;100.00;96736.59;5071260;28;19979;-82
2023/10/28 11:29:15;;;;;;;;;;;;;;;15.54;100.00;96736.59;5063716;28;20518;-78
2023/10/28 11:31:41;;;;;;;;;;;;;;;15.53;100.00;96740.41;5059806;28;19925;-79
2023/10/28 11:34:08;;;;;;;;;;;;;;;15.55;100.00;96738.19;5042886;28;19947;-80
2023/10/28 11:36:35;;;;;;;;;;;;;;;15.44;100.00;96739.63;5060011;28;19932;-79
2023/10/28 11:39:07;;;;;;;;;;;;;;;15.55;100.00;96740.88;5059869;28;19980;-78
2023/10/28 11:41:34;;;;;;;;;;;;;;;15.27;100.00;96745.84;5060534;28;19950;-79
2023/10/28 11:44:01;;;;;;;;;;;;;;;15.43;100.00;96746.09;5058026;28;19928;-81
2023/10/28 11:46:27;;;;;;;;;;;;;;;15.51;100.00;96750.69;5066103;28;19925;-80
2023/10/28 11:48:55;;;;;;;;;;;;;;;15.51;100.00;96738.03;5062705;28;19925;-82
2023/10/28 11:51:23;;;;;;;;;;;;;;;15.42;100.00;96745.31;5041217;28;19928;-80
2023/10/28 11:53:49;;;;;;;;;;;;;;;15.51;100.00;96748.78;5054754;28;20006;-80
2023/10/28 11:56:16;;;;;;;;;;;;;;;15.54;100.00;96753.53;5061571;28;20499;-82
2023/10/28 11:58:44;;;;;;;;;;;;;;;15.74;100.00;96743.97;5060997;28;19933;-82
2023/10/28 12:01:10;;;;;;;;;;;;;;;15.63;100.00;96743.53;5067516;28;20355;-79
2023/10/28 12:03:37;;;;;;;;;;;;;;;15.66;100.00;96739.38;5046187;28;19955;-80
2023/10/28 12:06:04;;;;;;;;;;;;;;;15.78;100.00;96742.19;5055968;28;19975;-82
2023/10/28 12:08:30;;;;;;;;;;;;;;;15.88;100.00;96741.81;5056205;28;20431;-80
2023/10/28 12:10:57;;;;;;;;;;;;;;;15.81;100.00;96746.16;5059106;28;19929;-82
2023/10/28 12:13:25;;;;;;;;;;;;;;;15.76;100.00;96736.34;5066800;28;19936;-82
2023/10/28 12:15:53;;;;;;;;;;;;;;;15.78;100.00;96746.78;5054181;28;19939;-81
2023/10/28 12:18:19;;;;;;;;;;;;;;;15.85;100.00;96742.47;5063718;28;20362;-83
2023/10/28 12:20:46;;;;;;;;;;;;;;;15.99;100.00;96729.56;5067509;28;20506;-81
2023/10/28 12:23:13;;;;;;;;;;;;;;;16.11;100.00;96739.63;5068330;28;20023;-81
2023/10/28 12:25:39;;;;;;;;;;;;;;;15.98;100.00;96741.44;5060985;28;20277;-82
2023/10/28 12:28:06;;;;;;;;;;;;;;;15.91;100.00;96733.09;5047434;28;20015;-82
2023/10/28 12:30:34;;;;;;;;;;;;;;;15.74;100.00;96735.09;5059868;28;19924;-83
2023/10/28 12:33:02;;;;;;;;;;;;;;;15.84;100.00;96735.53;5056641;28;19925;-81